Time,TemperatureF,DewpointF,PressureIn,WindDirection,WindDirectionDegrees,WindSpeedMPH,WindSpeedGustMPH,Humidity,HourlyPrecipIn,Conditions,Clouds,dailyrainin,SoftwareType,DateUTC
2014-02-26 00:05:00,11.6,3.1,30.06,West,271,4.0,4.0,68,0.00,,,0.00,Wunderground v.1.15,2014-02-26 05:05:00,
2014-02-26 00:10:00,11.5,3.0,30.06,WNW,302,3.0,4.0,68,0.00,,,0.00,Wunderground v.1.15,2014-02-26 05:10:00,
2014-02-26 00:15:00,11.3,3.1,30.06,WNW,286,4.0,4.0,69,0.00,,,0.00,Wunderground v.1.15,2014-02-26 05:15:00,
2014-02-26 00:20:00,11.2,3.0,30.06,WNW,286,4.0,4.0,69,0.00,,,0.00,Wunderground v.1.15,2014-02-26 05:20:00,
2014-02-26 00:30:00,10.8,2.9,30.06,North,353,3.0,4.0,70,0.00,,,0.00,Wunderground v.1.15,2014-02-26 05:30:00,
2014-02-26 00:35:00,10.7,3.1,30.07,West,281,2.0,2.0,71,0.00,,,0.00,Wunderground v.1.15,2014-02-26 05:35:00,
2014-02-26 00:45:00,10.3,2.8,30.07,NNW,329,2.0,2.0,71,0.00,,,0.00,Wunderground v.1.15,2014-02-26 05:45:00,
2014-02-26 00:55:00,10.1,2.9,30.07,NW,321,3.0,3.0,72,0.00,,,0.00,Wunderground v.1.15,2014-02-26 05:55:00,
2014-02-26 01:00:00,10.0,2.8,30.07,NW,318,3.0,3.0,72,0.00,,,0.00,Wunderground v.1.15,2014-02-26 06:00:00,
2014-02-26 01:05:00,10.0,2.8,30.07,WNW,286,3.0,3.0,72,0.00,,,0.00,Wunderground v.1.15,2014-02-26 06:05:00,
2014-02-26 01:15:00,9.7,2.5,30.07,WSW,246,2.0,3.0,72,0.00,,,0.00,Wunderground v.1.15,2014-02-26 06:15:00,
2014-02-26 01:25:00,9.5,2.3,30.07,West,270,2.0,2.0,72,0.00,,,0.00,Wunderground v.1.15,2014-02-26 06:25:00,
2014-02-26 01:30:00,9.5,2.3,30.08,NW,312,2.0,3.0,72,0.00,,,0.00,Wunderground v.1.15,2014-02-26 06:30:00,
2014-02-26 01:40:00,9.4,2.2,30.08,WNW,282,3.0,3.0,72,0.00,,,0.00,Wunderground v.1.15,2014-02-26 06:40:00,
2014-02-26 01:50:00,9.2,2.0,30.08,WNW,298,2.0,2.0,72,0.00,,,0.00,Wunderground v.1.15,2014-02-26 06:50:00,
2014-02-26 02:00:00,8.9,1.7,30.08,WNW,291,1.0,1.0,72,0.00,,,0.00,Wunderground v.1.15,2014-02-26 07:00:00,
2014-02-26 02:10:00,8.7,1.8,30.08,NNE,13,1.0,1.0,73,0.00,,,0.00,Wunderground v.1.15,2014-02-26 07:10:00,
2014-02-26 02:20:00,8.4,1.5,30.08,WNW,292,1.0,1.0,73,0.00,,,0.00,Wunderground v.1.15,2014-02-26 07:20:00,
2014-02-26 02:25:00,8.3,1.4,30.08,WNW,292,1.0,1.0,73,0.00,,,0.00,Wunderground v.1.15,2014-02-26 07:25:00,
2014-02-26 02:35:00,8.1,1.5,30.08,WNW,285,1.0,1.0,74,0.00,,,0.00,Wunderground v.1.15,2014-02-26 07:35:00,
2014-02-26 02:45:00,8.1,1.5,30.08,West,274,1.0,1.0,74,0.00,,,0.00,Wunderground v.1.15,2014-02-26 07:45:00,
2014-02-26 02:50:00,8.0,1.4,30.08,WNW,283,1.0,1.0,74,0.00,,,0.00,Wunderground v.1.15,2014-02-26 07:50:00,
2014-02-26 02:55:00,7.9,1.3,30.08,WSW,255,1.0,8.0,74,0.00,,,0.00,Wunderground v.1.15,2014-02-26 07:55:00,
2014-02-26 03:00:00,7.8,1.5,30.08,West,263,1.0,1.0,75,0.00,,,0.00,Wunderground v.1.15,2014-02-26 08:00:00,
2014-02-26 03:10:00,7.4,1.4,30.08,WNW,295,1.0,3.0,76,0.00,,,0.00,Wunderground v.1.15,2014-02-26 08:10:00,
2014-02-26 03:20:00,7.2,1.8,30.08,WNW,297,1.0,2.0,78,0.00,,,0.00,Wunderground v.1.15,2014-02-26 08:20:00,
2014-02-26 03:30:00,7.0,1.9,30.07,North,360,2.0,2.0,79,0.00,,,0.00,Wunderground v.1.15,2014-02-26 08:30:00,
2014-02-26 03:35:00,7.1,2.0,30.08,WNW,288,2.0,5.0,79,0.00,,,0.00,Wunderground v.1.15,2014-02-26 08:35:00,
2014-02-26 03:45:00,7.2,2.3,30.08,WNW,301,1.0,1.0,80,0.00,,,0.00,Wunderground v.1.15,2014-02-26 08:45:00,
2014-02-26 03:55:00,7.4,2.3,30.08,West,261,2.0,6.0,79,0.00,,,0.00,Wunderground v.1.15,2014-02-26 08:55:00,
2014-02-26 04:00:00,7.4,2.3,30.08,West,276,3.0,3.0,79,0.00,,,0.00,Wunderground v.1.15,2014-02-26 09:00:00,
2014-02-26 04:05:00,7.4,2.3,30.08,NW,305,2.0,5.0,79,0.00,,,0.00,Wunderground v.1.15,2014-02-26 09:05:00,
2014-02-26 04:15:00,7.4,2.3,30.09,SW,236,2.0,4.0,79,0.00,,,0.00,Wunderground v.1.15,2014-02-26 09:15:00,
2014-02-26 04:25:00,7.2,2.3,30.09,NW,314,2.0,2.0,80,0.00,,,0.00,Wunderground v.1.15,2014-02-26 09:25:00,
2014-02-26 04:30:00,7.2,2.3,30.09,NW,305,2.0,2.0,80,0.00,,,0.00,Wunderground v.1.15,2014-02-26 09:30:00,
2014-02-26 04:40:00,7.0,1.9,30.10,NW,320,2.0,3.0,79,0.00,,,0.00,Wunderground v.1.15,2014-02-26 09:40:00,
2014-02-26 04:50:00,7.0,1.9,30.10,NW,312,2.0,6.0,79,0.00,,,0.00,Wunderground v.1.15,2014-02-26 09:50:00,
2014-02-26 05:05:00,7.2,2.1,30.10,NNW,334,4.0,5.0,79,0.00,,,0.00,Wunderground v.1.15,2014-02-26 10:05:00,
2014-02-26 05:10:00,7.0,2.1,30.11,NW,321,4.0,5.0,80,0.00,,,0.00,Wunderground v.1.15,2014-02-26 10:10:00,
2014-02-26 05:20:00,6.7,2.1,30.11,West,263,3.0,5.0,81,0.00,,,0.00,Wunderground v.1.15,2014-02-26 10:20:00,
2014-02-26 05:25:00,6.3,1.2,30.11,NW,322,3.0,3.0,79,0.00,,,0.00,Wunderground v.1.15,2014-02-26 10:25:00,
2014-02-26 05:35:00,5.9,0.5,30.12,NW,314,2.0,2.0,78,0.00,,,0.00,Wunderground v.1.15,2014-02-26 10:35:00,
2014-02-26 05:40:00,5.6,-0.1,30.12,NW,307,2.0,3.0,77,0.00,,,0.00,Wunderground v.1.15,2014-02-26 10:40:00,
2014-02-26 05:50:00,5.1,-0.5,30.12,NW,312,1.0,8.0,77,0.00,,,0.00,Wunderground v.1.15,2014-02-26 10:50:00,
2014-02-26 06:00:00,4.6,-0.8,30.12,North,359,0.0,0.0,78,0.00,,,0.00,Wunderground v.1.15,2014-02-26 11:00:00,
2014-02-26 06:10:00,4.2,-1.1,30.13,West,264,0.0,0.0,78,0.00,,,0.00,Wunderground v.1.15,2014-02-26 11:10:00,
2014-02-26 06:20:00,3.8,-1.0,30.13,WNW,288,0.0,1.0,80,0.00,,,0.00,Wunderground v.1.15,2014-02-26 11:20:00,
2014-02-26 06:30:00,3.6,-1.2,30.14,WNW,286,0.0,0.0,80,0.00,,,0.00,Wunderground v.1.15,2014-02-26 11:30:00,
2014-02-26 06:35:00,3.3,-1.5,30.14,WNW,287,0.0,0.0,80,0.00,,,0.00,Wunderground v.1.15,2014-02-26 11:35:00,
2014-02-26 06:45:00,2.2,-2.6,30.13,WNW,287,0.0,0.0,80,0.00,,,0.00,Wunderground v.1.15,2014-02-26 11:45:00,
2014-02-26 06:55:00,1.2,-3.0,30.14,West,279,0.0,7.0,82,0.00,,,0.00,Wunderground v.1.15,2014-02-26 11:55:00,
2014-02-26 07:00:00,0.7,-3.5,30.14,West,281,0.0,0.0,82,0.00,,,0.00,Wunderground v.1.15,2014-02-26 12:00:00,
2014-02-26 07:05:00,0.2,-3.7,30.14,West,281,0.0,0.0,83,0.00,,,0.00,Wunderground v.1.15,2014-02-26 12:05:00,
2014-02-26 07:15:00,-0.3,-3.7,30.14,West,281,0.0,0.0,85,0.00,,,0.00,Wunderground v.1.15,2014-02-26 12:15:00,
2014-02-26 07:25:00,-0.3,-3.5,30.14,West,281,0.0,0.0,86,0.00,,,0.00,Wunderground v.1.15,2014-02-26 12:25:00,
2014-02-26 07:35:00,-0.2,-3.1,30.14,West,281,0.0,0.0,87,0.00,,,0.00,Wunderground v.1.15,2014-02-26 12:35:00,
2014-02-26 07:40:00,0.0,-2.9,30.15,West,281,0.0,0.0,87,0.00,,,0.00,Wunderground v.1.15,2014-02-26 12:40:00,
2014-02-26 07:50:00,0.8,-2.2,30.14,WNW,283,0.0,1.0,87,0.00,,,0.00,Wunderground v.1.15,2014-02-26 12:50:00,
2014-02-26 08:00:00,2.2,-1.3,30.15,West,270,0.0,0.0,85,0.00,,,0.00,Wunderground v.1.15,2014-02-26 13:00:00,
2014-02-26 08:10:00,3.4,-0.9,30.16,WNW,287,0.0,0.0,82,0.00,,,0.00,Wunderground v.1.15,2014-02-26 13:10:00,
2014-02-26 08:15:00,3.9,-0.4,30.16,North,357,1.0,2.0,82,0.00,,,0.00,Wunderground v.1.15,2014-02-26 13:15:00,
2014-02-26 08:25:00,4.6,-0.2,30.16,West,260,1.0,1.0,80,0.00,,,0.00,Wunderground v.1.15,2014-02-26 13:25:00,
2014-02-26 08:35:00,5.2,0.1,30.16,WNW,290,1.0,1.0,79,0.00,,,0.00,Wunderground v.1.15,2014-02-26 13:35:00,
2014-02-26 08:45:00,5.7,0.0,30.16,SW,235,1.0,2.0,77,0.00,,,0.00,Wunderground v.1.15,2014-02-26 13:45:00,
2014-02-26 08:55:00,6.3,-0.2,30.16,West,276,1.0,3.0,74,0.00,,,0.00,Wunderground v.1.15,2014-02-26 13:55:00,
2014-02-26 09:00:00,6.5,-0.6,30.16,WNW,302,2.0,3.0,72,0.00,,,0.00,Wunderground v.1.15,2014-02-26 14:00:00,
2014-02-26 09:05:00,6.7,-0.4,30.16,WNW,301,3.0,3.0,72,0.00,,,0.00,Wunderground v.1.15,2014-02-26 14:05:00,
2014-02-26 09:15:00,7.0,-1.3,30.16,NW,318,3.0,4.0,68,0.00,,,0.00,Wunderground v.1.15,2014-02-26 14:15:00,
2014-02-26 09:25:00,7.5,-0.9,30.16,West,274,3.0,3.0,68,0.00,,,0.00,Wunderground v.1.15,2014-02-26 14:25:00,
2014-02-26 09:35:00,7.6,-0.5,30.16,NW,304,3.0,3.0,69,0.00,,,0.00,Wunderground v.1.15,2014-02-26 14:35:00,
2014-02-26 09:40:00,7.8,-0.3,30.16,West,273,3.0,3.0,69,0.00,,,0.00,Wunderground v.1.15,2014-02-26 14:40:00,
2014-02-26 09:50:00,8.3,-0.1,30.16,WSW,250,3.0,5.0,68,0.00,,,0.00,Wunderground v.1.15,2014-02-26 14:50:00,
2014-02-26 10:00:00,8.6,-0.4,30.15,WSW,247,2.0,2.0,66,0.00,,,0.00,Wunderground v.1.15,2014-02-26 15:00:00,
2014-02-26 10:10:00,9.2,-0.5,30.15,West,274,2.0,3.0,64,0.00,,,0.00,Wunderground v.1.15,2014-02-26 15:10:00,
2014-02-26 10:20:00,8.9,-1.8,30.15,NW,308,3.0,4.0,61,0.00,,,0.00,Wunderground v.1.15,2014-02-26 15:20:00,
2014-02-26 10:30:00,8.7,-2.0,30.14,West,278,3.0,3.0,61,0.00,,,0.00,Wunderground v.1.15,2014-02-26 15:30:00,
2014-02-26 10:40:00,9.9,-0.9,30.14,WNW,285,3.0,3.0,61,0.00,,,0.00,Wunderground v.1.15,2014-02-26 15:40:00,
2014-02-26 10:50:00,10.6,-0.6,30.14,WSW,253,2.0,9.0,60,0.00,,,0.00,Wunderground v.1.15,2014-02-26 15:50:00,
2014-02-26 11:00:00,10.8,-0.7,30.13,WNW,285,4.0,4.0,59,0.00,,,0.00,Wunderground v.1.15,2014-02-26 16:00:00,
2014-02-26 11:10:00,10.9,-1.0,30.13,West,276,4.0,4.0,58,0.00,,,0.00,Wunderground v.1.15,2014-02-26 16:10:00,
2014-02-26 11:20:00,10.5,-1.4,30.13,West,278,3.0,6.0,58,0.00,,,0.00,Wunderground v.1.15,2014-02-26 16:20:00,
2014-02-26 11:30:00,10.3,-1.6,30.13,WNW,286,4.0,4.0,58,0.00,,,0.00,Wunderground v.1.15,2014-02-26 16:30:00,
2014-02-26 11:35:00,10.1,-1.4,30.12,West,276,3.0,4.0,59,0.00,,,0.00,Wunderground v.1.15,2014-02-26 16:35:00,
2014-02-26 11:45:00,11.3,-0.3,30.11,West,266,3.0,4.0,59,0.00,,,0.00,Wunderground v.1.15,2014-02-26 16:45:00,
2014-02-26 11:55:00,11.7,-0.6,30.11,West,262,3.0,7.0,57,0.00,,,0.00,Wunderground v.1.15,2014-02-26 16:55:00,
2014-02-26 12:00:00,11.8,-0.9,30.11,West,266,3.0,3.0,56,0.00,,,0.00,Wunderground v.1.15,2014-02-26 17:00:00,
2014-02-26 12:05:00,11.9,-1.2,30.11,West,273,3.0,3.0,55,0.00,,,0.00,Wunderground v.1.15,2014-02-26 17:05:00,
2014-02-26 12:15:00,11.8,-0.9,30.10,WSW,257,3.0,3.0,56,0.00,,,0.00,Wunderground v.1.15,2014-02-26 17:15:00,
2014-02-26 12:30:00,12.4,-0.7,30.09,West,277,3.0,3.0,55,0.00,,,0.00,Wunderground v.1.15,2014-02-26 17:30:00,
2014-02-26 12:40:00,13.3,0.1,30.08,NW,319,2.0,4.0,55,0.00,,,0.00,Wunderground v.1.15,2014-02-26 17:40:00,
2014-02-26 12:50:00,12.8,-0.3,30.07,West,261,3.0,8.0,55,0.00,,,0.00,Wunderground v.1.15,2014-02-26 17:50:00,
2014-02-26 13:00:00,12.9,-0.3,30.07,WNW,283,3.0,3.0,55,0.00,,,0.00,Wunderground v.1.15,2014-02-26 18:00:00,
2014-02-26 13:10:00,13.4,0.2,30.06,SW,236,3.0,3.0,55,0.00,,,0.00,Wunderground v.1.15,2014-02-26 18:10:00,
2014-02-26 13:15:00,13.6,0.8,30.06,SW,224,3.0,3.0,56,0.00,,,0.00,Wunderground v.1.15,2014-02-26 18:15:00,
2014-02-26 13:25:00,13.7,0.5,30.05,WNW,296,3.0,6.0,55,0.00,,,0.00,Wunderground v.1.15,2014-02-26 18:25:00,
2014-02-26 13:35:00,12.9,0.1,30.04,West,280,3.0,9.0,56,0.00,,,0.00,Wunderground v.1.15,2014-02-26 18:35:00,
2014-02-26 13:45:00,13.4,0.6,30.03,SW,215,3.0,5.0,56,0.00,,,0.00,Wunderground v.1.15,2014-02-26 18:45:00,
2014-02-26 13:55:00,14.0,1.2,30.02,SW,224,3.0,10.0,56,0.00,,,0.00,Wunderground v.1.15,2014-02-26 18:55:00,
2014-02-26 14:00:00,13.7,0.5,30.02,WNW,301,2.0,7.0,55,0.00,,,0.00,Wunderground v.1.15,2014-02-26 19:00:00,
2014-02-26 14:10:00,13.1,0.3,30.01,West,269,3.0,4.0,56,0.00,,,0.00,Wunderground v.1.15,2014-02-26 19:10:00,
2014-02-26 14:15:00,13.6,1.5,30.01,WSW,252,3.0,6.0,58,0.00,,,0.00,Wunderground v.1.15,2014-02-26 19:15:00,
2014-02-26 14:25:00,14.1,1.3,30.00,WSW,241,3.0,3.0,56,0.00,,,0.00,Wunderground v.1.15,2014-02-26 19:25:00,
2014-02-26 14:30:00,14.8,1.9,30.00,West,276,3.0,5.0,56,0.00,,,0.00,Wunderground v.1.15,2014-02-26 19:30:00,
2014-02-26 14:40:00,14.5,2.0,29.99,West,261,4.0,4.0,57,0.00,,,0.00,Wunderground v.1.15,2014-02-26 19:40:00,
2014-02-26 14:50:00,14.3,1.4,29.98,WNW,302,4.0,14.0,56,0.00,,,0.00,Wunderground v.1.15,2014-02-26 19:50:00,
2014-02-26 15:00:00,14.4,1.9,29.98,WSW,252,3.0,4.0,57,0.00,,,0.00,Wunderground v.1.15,2014-02-26 20:00:00,
2014-02-26 15:10:00,14.0,1.5,29.97,NNW,328,3.0,3.0,57,0.00,,,0.00,Wunderground v.1.15,2014-02-26 20:10:00,
2014-02-26 15:15:00,14.0,1.9,29.97,SW,235,3.0,3.0,58,0.00,,,0.00,Wunderground v.1.15,2014-02-26 20:15:00,
2014-02-26 15:25:00,14.1,1.6,29.96,WNW,302,3.0,4.0,57,0.00,,,0.00,Wunderground v.1.15,2014-02-26 20:25:00,
2014-02-26 15:35:00,14.2,1.7,29.95,West,277,3.0,4.0,57,0.00,,,0.00,Wunderground v.1.15,2014-02-26 20:35:00,
2014-02-26 15:45:00,15.1,2.6,29.95,West,274,2.0,4.0,57,0.00,,,0.00,Wunderground v.1.15,2014-02-26 20:45:00,
2014-02-26 15:55:00,14.7,2.2,29.94,SW,235,3.0,14.0,57,0.00,,,0.00,Wunderground v.1.15,2014-02-26 20:55:00,
2014-02-26 16:00:00,14.7,2.2,29.94,WSW,253,3.0,3.0,57,0.00,,,0.00,Wunderground v.1.15,2014-02-26 21:00:00,
2014-02-26 16:05:00,14.6,2.5,29.94,WSW,254,3.0,3.0,58,0.00,,,0.00,Wunderground v.1.15,2014-02-26 21:05:00,
2014-02-26 16:15:00,14.5,2.0,29.94,WSW,252,4.0,6.0,57,0.00,,,0.00,Wunderground v.1.15,2014-02-26 21:15:00,
2014-02-26 16:20:00,14.2,2.1,29.93,SW,219,4.0,4.0,58,0.00,,,0.00,Wunderground v.1.15,2014-02-26 21:20:00,
2014-02-26 16:30:00,14.3,1.8,29.93,WSW,240,3.0,3.0,57,0.00,,,0.00,Wunderground v.1.15,2014-02-26 21:30:00,
2014-02-26 16:35:00,14.1,1.6,29.92,WSW,256,3.0,3.0,57,0.00,,,0.00,Wunderground v.1.15,2014-02-26 21:35:00,
2014-02-26 16:45:00,14.3,1.8,29.92,West,264,3.0,3.0,57,0.00,,,0.00,Wunderground v.1.15,2014-02-26 21:45:00,
2014-02-26 16:50:00,14.1,1.6,29.92,West,262,3.0,3.0,57,0.00,,,0.00,Wunderground v.1.15,2014-02-26 21:50:00,
2014-02-26 17:00:00,13.9,1.8,29.91,West,262,2.0,4.0,58,0.00,,,0.00,Wunderground v.1.15,2014-02-26 22:00:00,
2014-02-26 17:10:00,13.9,2.2,29.91,WSW,249,2.0,2.0,59,0.00,,,0.00,Wunderground v.1.15,2014-02-26 22:10:00,
2014-02-26 17:15:00,13.7,2.4,29.90,NW,304,2.0,4.0,60,0.00,,,0.00,Wunderground v.1.15,2014-02-26 22:15:00,
2014-02-26 17:25:00,13.6,2.6,29.90,SE,146,2.0,4.0,61,0.00,,,0.00,Wunderground v.1.15,2014-02-26 22:25:00,
2014-02-26 17:30:00,13.5,2.5,29.89,WSW,257,2.0,2.0,61,0.00,,,0.00,Wunderground v.1.15,2014-02-26 22:30:00,
2014-02-26 17:40:00,13.3,2.3,29.88,SW,233,2.0,3.0,61,0.00,,,0.00,Wunderground v.1.15,2014-02-26 22:40:00,
2014-02-26 17:45:00,13.1,2.5,29.88,WSW,242,2.0,3.0,62,0.00,,,0.00,Wunderground v.1.15,2014-02-26 22:45:00,
2014-02-26 17:55:00,12.7,2.1,29.87,WSW,253,2.0,10.0,62,0.00,,,0.00,Wunderground v.1.15,2014-02-26 22:55:00,
2014-02-26 18:00:00,12.5,1.9,29.87,SW,236,2.0,3.0,62,0.00,,,0.00,Wunderground v.1.15,2014-02-26 23:00:00,
2014-02-26 18:10:00,12.1,1.2,29.87,WSW,250,2.0,2.0,61,0.00,,,0.00,Wunderground v.1.15,2014-02-26 23:10:00,
2014-02-26 18:15:00,12.0,1.5,29.86,SW,232,2.0,2.0,62,0.00,,,0.00,Wunderground v.1.15,2014-02-26 23:15:00,
2014-02-26 18:25:00,11.7,1.2,29.85,SSW,204,3.0,4.0,62,0.00,,,0.00,Wunderground v.1.15,2014-02-26 23:25:00,
2014-02-26 18:35:00,11.3,0.8,29.85,WSW,257,2.0,4.0,62,0.00,,,0.00,Wunderground v.1.15,2014-02-26 23:35:00,
2014-02-26 18:45:00,10.9,0.4,29.86,WNW,290,1.0,2.0,62,0.00,,,0.00,Wunderground v.1.15,2014-02-26 23:45:00,
2014-02-26 18:55:00,10.7,0.2,29.85,WSW,238,2.0,6.0,62,0.00,,,0.00,Wunderground v.1.15,2014-02-26 23:55:00,
2014-02-26 19:00:00,10.6,0.1,29.85,SW,219,1.0,1.0,62,0.00,,,0.00,Wunderground v.1.15,2014-02-27 00:00:00,
2014-02-26 19:05:00,10.5,0.4,29.85,SW,228,1.0,3.0,63,0.00,,,0.00,Wunderground v.1.15,2014-02-27 00:05:00,
2014-02-26 19:15:00,10.2,0.4,29.85,SSW,198,2.0,2.0,64,0.00,,,0.00,Wunderground v.1.15,2014-02-27 00:15:00,
2014-02-26 19:25:00,9.9,0.1,29.83,SW,229,2.0,2.0,64,0.00,,,0.00,Wunderground v.1.15,2014-02-27 00:25:00,
2014-02-26 19:35:00,9.6,0.2,29.83,WSW,245,1.0,2.0,65,0.00,,,0.00,Wunderground v.1.15,2014-02-27 00:35:00,
2014-02-26 19:40:00,9.5,-0.2,29.83,SSW,197,1.0,2.0,64,0.00,,,0.00,Wunderground v.1.15,2014-02-27 00:40:00,
2014-02-26 19:50:00,9.4,0.0,29.82,SW,215,1.0,4.0,65,0.00,,,0.00,Wunderground v.1.15,2014-02-27 00:50:00,
2014-02-26 20:00:00,9.2,0.1,29.81,SW,214,1.0,1.0,66,0.00,,,0.00,Wunderground v.1.15,2014-02-27 01:00:00,
2014-02-26 20:10:00,9.2,0.1,29.79,SE,136,2.0,2.0,66,0.00,,,0.00,Wunderground v.1.15,2014-02-27 01:10:00,
2014-02-26 20:20:00,9.0,-0.7,29.78,WSW,238,2.0,2.0,64,0.00,,,0.00,Wunderground v.1.15,2014-02-27 01:20:00,
2014-02-26 20:25:00,9.0,-0.7,29.77,SSW,209,2.0,4.0,64,0.00,,,0.00,Wunderground v.1.15,2014-02-27 01:25:00,
2014-02-26 20:35:00,9.1,-0.6,29.78,WSW,242,2.0,3.0,64,0.00,,,0.00,Wunderground v.1.15,2014-02-27 01:35:00,
2014-02-26 20:45:00,9.1,-0.6,29.78,WSW,257,2.0,2.0,64,0.00,,,0.00,Wunderground v.1.15,2014-02-27 01:45:00,
2014-02-26 20:55:00,9.0,-0.7,29.78,SSE,165,2.0,4.0,64,0.00,,,0.00,Wunderground v.1.15,2014-02-27 01:55:00,
2014-02-26 21:05:00,8.8,-0.6,29.77,WSW,243,2.0,2.0,65,0.00,,,0.00,Wunderground v.1.15,2014-02-27 02:05:00,
2014-02-26 21:15:00,8.6,-0.4,29.76,SW,217,1.0,1.0,66,0.00,,,0.00,Wunderground v.1.15,2014-02-27 02:15:00,
2014-02-26 21:25:00,8.6,-0.4,29.75,WSW,242,1.0,2.0,66,0.00,,,0.00,Wunderground v.1.15,2014-02-27 02:25:00,
2014-02-26 21:35:00,8.7,0.0,29.75,WSW,256,2.0,2.0,67,0.00,,,0.00,Wunderground v.1.15,2014-02-27 02:35:00,
2014-02-26 21:45:00,8.7,0.0,29.74,WNW,287,2.0,4.0,67,0.00,,,0.00,Wunderground v.1.15,2014-02-27 02:45:00,
2014-02-26 21:55:00,8.7,0.3,29.75,NNE,27,1.0,7.0,68,0.00,,,0.00,Wunderground v.1.15,2014-02-27 02:55:00,
2014-02-26 22:00:00,8.7,0.6,29.75,WNW,284,2.0,2.0,69,0.00,,,0.00,Wunderground v.1.15,2014-02-27 03:00:00,
2014-02-26 22:05:00,8.6,0.5,29.75,WSW,245,2.0,2.0,69,0.00,,,0.00,Wunderground v.1.15,2014-02-27 03:05:00,
2014-02-26 22:15:00,8.7,0.9,29.75,West,263,2.0,3.0,70,0.00,,,0.00,Wunderground v.1.15,2014-02-27 03:15:00,
2014-02-26 22:25:00,8.8,1.0,29.75,WSW,245,2.0,3.0,70,0.00,,,0.00,Wunderground v.1.15,2014-02-27 03:25:00,
2014-02-26 22:35:00,8.8,1.3,29.74,West,260,2.0,2.0,71,0.00,,,0.00,Wunderground v.1.15,2014-02-27 03:35:00,
2014-02-26 22:40:00,8.9,1.4,29.74,WSW,245,2.0,2.0,71,0.00,,,0.00,Wunderground v.1.15,2014-02-27 03:40:00,
2014-02-26 22:45:00,9.0,1.5,29.74,WSW,240,2.0,2.0,71,0.00,,,0.00,Wunderground v.1.15,2014-02-27 03:45:00,
2014-02-26 22:51:00,8.9,1.4,29.73,WSW,249,2.0,2.0,71,0.00,,,0.00,Wunderground v.1.15,2014-02-27 03:51:00,
2014-02-26 23:00:00,8.8,1.6,29.73,SW,215,1.0,3.0,72,0.00,,,0.00,Wunderground v.1.15,2014-02-27 04:00:00,
2014-02-26 23:10:00,8.9,1.7,29.72,WSW,244,2.0,4.0,72,0.00,,,0.00,Wunderground v.1.15,2014-02-27 04:10:00,
2014-02-26 23:15:00,8.9,1.7,29.71,SSW,208,2.0,4.0,72,0.00,,,0.00,Wunderground v.1.15,2014-02-27 04:15:00,
2014-02-26 23:20:00,8.9,1.7,29.71,WSW,252,2.0,2.0,72,0.00,,,0.00,Wunderground v.1.15,2014-02-27 04:20:00,
2014-02-26 23:30:00,8.9,2.0,29.70,SW,221,1.0,2.0,73,0.00,,,0.00,Wunderground v.1.15,2014-02-27 04:30:00,
2014-02-26 23:40:00,9.1,2.2,29.70,WSW,257,2.0,2.0,73,0.00,,,0.00,Wunderground v.1.15,2014-02-27 04:40:00,
2014-02-26 23:45:00,9.0,2.1,29.69,SW,232,2.0,2.0,73,0.00,,,0.00,Wunderground v.1.15,2014-02-27 04:45:00,
2014-02-26 23:55:00,9.1,2.2,29.69,SW,233,2.0,3.0,73,0.00,,,0.00,Wunderground v.1.15,2014-02-27 04:55:00,